createdAt,value
2019-02-15T00:01:06.787Z,5.20
2019-02-15T00:03:34.443Z,5.37
2019-02-15T00:06:02.010Z,6.50
2019-02-15T00:08:29.664Z,5.10
2019-02-15T00:10:57.423Z,4.73
2019-02-15T00:13:24.995Z,4.83
2019-02-15T00:15:52.631Z,5.20
2019-02-15T00:18:37.920Z,4.90
2019-02-15T00:21:16.888Z,4.50
2019-02-15T00:23:44.476Z,7.27
2019-02-15T00:26:13.054Z,5.30
2019-02-15T00:28:40.699Z,4.70
2019-02-15T00:31:27.935Z,5.33
2019-02-15T00:34:14.993Z,4.73
2019-02-15T00:36:55.214Z,4.30
2019-02-15T00:39:35.775Z,4.10
2019-02-15T00:42:15.336Z,5.10
2019-02-15T00:44:55.492Z,4.10
2019-02-15T00:47:55.253Z,3.90
2019-02-15T00:50:41.936Z,4.20
2019-02-15T00:53:27.089Z,7.23
2019-02-15T00:56:33.505Z,4.37
2019-02-15T00:59:29.012Z,4.53
2019-02-15T01:02:15.308Z,4.87
2019-02-15T01:05:15.313Z,5.40
2019-02-15T01:11:16.103Z,3.77
2019-02-15T01:13:56.005Z,4.87
2019-02-15T01:16:36.093Z,6.03
2019-02-15T01:19:16.116Z,3.47
2019-02-15T01:21:56.124Z,4.03
2019-02-15T01:24:36.558Z,3.97
2019-02-15T01:30:36.057Z,2.83
2019-02-15T01:33:35.304Z,3.13
2019-02-15T01:36:25.431Z,3.67
2019-02-15T01:39:21.541Z,4.03
2019-02-15T01:42:17.635Z,5.40
2019-02-15T01:44:52.540Z,3.20
2019-02-15T01:47:23.642Z,3.83
2019-02-15T01:49:51.532Z,3.47
2019-02-15T01:52:19.268Z,4.60
2019-02-15T01:54:46.893Z,4.70
2019-02-15T01:57:14.460Z,4.13
2019-02-15T01:59:42.188Z,4.23
2019-02-15T02:02:09.781Z,6.37
2019-02-15T02:04:56.804Z,4.43
2019-02-15T02:07:43.800Z,5.23
2019-02-15T02:10:24.280Z,3.80
2019-02-15T02:13:04.620Z,4.57
2019-02-15T02:15:44.824Z,5.10
2019-02-15T02:18:24.744Z,3.80
2019-02-15T02:21:05.161Z,5.17
2019-02-15T02:23:45.164Z,4.57
2019-02-15T02:26:25.324Z,4.13
2019-02-15T02:29:05.389Z,3.47
2019-02-15T02:31:45.513Z,4.53
2019-02-15T02:34:25.616Z,4.47
2019-02-15T02:37:05.617Z,4.07
2019-02-15T02:39:45.900Z,4.33
2019-02-15T02:42:25.915Z,5.17
2019-02-15T02:45:05.979Z,4.63
2019-02-15T02:47:46.437Z,5.73
2019-02-15T02:50:26.281Z,3.70
2019-02-15T02:53:06.217Z,4.00
2019-02-15T02:55:46.324Z,4.40
2019-02-15T02:58:26.648Z,5.23
2019-02-15T03:01:06.742Z,4.27
2019-02-15T03:03:46.788Z,4.87
2019-02-15T03:06:27.096Z,5.27
2019-02-15T03:09:08.959Z,4.00
2019-02-15T03:11:49.329Z,4.47
2019-02-15T03:14:29.216Z,3.60
2019-02-15T03:17:09.229Z,5.37
2019-02-15T03:19:49.537Z,4.40
2019-02-15T03:22:29.801Z,3.87
2019-02-15T03:25:10.042Z,3.87
2019-02-15T03:27:50.190Z,5.77
2019-02-15T03:30:30.365Z,4.47
2019-02-15T03:33:10.729Z,5.17
2019-02-15T03:39:00.000Z,4.60
2019-02-15T03:41:40.430Z,3.90
2019-02-15T03:44:22.601Z,3.93
2019-02-15T03:47:02.655Z,5.20
2019-02-15T03:49:42.665Z,6.07
2019-02-15T03:52:22.821Z,3.43
2019-02-15T03:55:02.858Z,3.20
2019-02-15T03:57:43.053Z,3.77
2019-02-15T04:00:23.062Z,3.87
2019-02-15T04:03:03.250Z,4.30
2019-02-15T04:05:43.356Z,4.27
2019-02-15T04:08:23.396Z,5.03
2019-02-15T04:11:03.516Z,4.27
2019-02-15T04:13:43.620Z,4.27
2019-02-15T04:16:23.508Z,3.50
2019-02-15T04:19:03.577Z,4.73
2019-02-15T04:21:43.715Z,3.60
2019-02-15T04:24:23.840Z,4.33
2019-02-15T04:27:03.947Z,3.93
2019-02-15T04:29:44.023Z,3.73
2019-02-15T04:32:24.249Z,5.03
2019-02-15T04:35:04.489Z,4.33
2019-02-15T04:37:45.076Z,4.77
2019-02-15T04:40:24.911Z,5.03
2019-02-15T04:43:05.119Z,5.80
2019-02-15T04:45:45.108Z,5.63
2019-02-15T04:48:25.169Z,4.27
2019-02-15T04:51:05.565Z,4.73
2019-02-15T04:53:45.373Z,5.83
2019-02-15T04:56:25.600Z,6.10
2019-02-15T04:59:05.694Z,6.07
2019-02-15T05:01:45.916Z,5.93
2019-02-15T05:04:14.064Z,5.70
2019-02-15T05:07:01.224Z,4.77
2019-02-15T05:09:42.401Z,3.70
2019-02-15T05:12:22.064Z,3.90
2019-02-15T05:15:02.371Z,4.43
2019-02-15T05:17:42.401Z,4.23
2019-02-15T05:20:22.631Z,3.57
2019-02-15T05:23:02.701Z,4.07
2019-02-15T05:25:42.931Z,3.33
2019-02-15T05:28:23.036Z,4.17
2019-02-15T05:31:03.169Z,4.00
2019-02-15T05:33:43.391Z,4.00
2019-02-15T05:36:23.398Z,4.43
2019-02-15T05:39:04.190Z,4.83
2019-02-15T05:41:44.449Z,4.67
2019-02-15T05:44:25.503Z,4.87
2019-02-15T05:47:05.822Z,5.37
2019-02-15T05:49:45.854Z,7.17
2019-02-15T05:52:26.137Z,5.40
2019-02-15T05:55:06.348Z,6.13
2019-02-15T05:57:46.351Z,6.03
2019-02-15T06:00:36.434Z,5.60
2019-02-15T06:03:08.769Z,5.70
2019-02-15T06:05:48.824Z,5.83
2019-02-15T06:08:28.814Z,5.93
2019-02-15T06:11:09.144Z,5.83
2019-02-15T06:13:48.754Z,6.63
2019-02-15T06:16:29.004Z,5.80
2019-02-15T06:19:09.198Z,5.63
2019-02-15T06:21:49.168Z,3.77
2019-02-15T06:24:29.220Z,4.63
2019-02-15T06:27:09.694Z,4.13
2019-02-15T06:29:49.712Z,4.47
2019-02-15T06:32:29.712Z,4.43
2019-02-15T06:35:09.776Z,6.27
2019-02-15T06:37:49.905Z,5.03
2019-02-15T06:40:30.200Z,5.73
2019-02-15T06:43:10.192Z,8.40
2019-02-15T06:45:50.125Z,7.63
2019-02-15T06:48:30.181Z,7.07
2019-02-15T06:51:10.221Z,10.40
2019-02-15T06:53:50.504Z,9.03
2019-02-15T06:56:30.621Z,6.87
2019-02-15T06:59:30.125Z,12.17
2019-02-15T07:05:30.884Z,5.87
2019-02-15T07:08:10.641Z,8.80
2019-02-15T07:10:50.591Z,13.33
2019-02-15T07:13:30.384Z,6.60
2019-02-15T07:16:10.587Z,6.70
2019-02-15T07:18:50.724Z,7.70
2019-02-15T07:21:30.722Z,9.97
2019-02-15T07:24:10.752Z,8.47
2019-02-15T07:26:51.920Z,7.93
2019-02-15T07:29:32.024Z,6.57
2019-02-15T07:32:12.301Z,9.23
2019-02-15T07:34:52.352Z,5.60
2019-02-15T07:37:32.628Z,5.30
2019-02-15T07:40:12.794Z,4.83
2019-02-15T07:42:52.895Z,6.03
2019-02-15T07:45:42.294Z,6.93
2019-02-15T07:48:15.209Z,3.30
2019-02-15T07:50:55.225Z,4.13
2019-02-15T07:53:35.305Z,4.50
2019-02-15T07:56:15.610Z,4.87
2019-02-15T07:58:55.754Z,3.73
2019-02-15T08:01:36.053Z,4.20
2019-02-15T08:04:16.341Z,4.63
2019-02-15T08:06:56.557Z,7.37
2019-02-15T08:09:36.774Z,4.20
2019-02-15T08:12:17.009Z,4.13
2019-02-15T08:14:57.087Z,7.37
2019-02-15T08:17:36.865Z,6.00
2019-02-15T08:20:16.978Z,5.00
2019-02-15T08:22:58.097Z,8.43
2019-02-15T08:25:38.417Z,5.87
2019-02-15T08:28:18.343Z,7.40
2019-02-15T08:30:58.536Z,11.27
2019-02-15T08:33:38.671Z,9.70
2019-02-15T08:36:18.798Z,10.53
2019-02-15T08:38:58.768Z,10.13
2019-02-15T08:41:38.925Z,10.80
2019-02-15T08:44:19.341Z,9.93
2019-02-15T08:46:59.616Z,11.03
2019-02-15T08:49:39.899Z,12.57
2019-02-15T08:52:20.028Z,13.40
2019-02-15T08:55:00.322Z,12.60
2019-02-15T08:57:40.352Z,10.37
2019-02-15T09:00:20.608Z,11.20
2019-02-15T09:03:00.484Z,11.13
2019-02-15T09:05:40.714Z,10.50
2019-02-15T09:08:20.925Z,11.43
2019-02-15T09:11:02.385Z,11.33
2019-02-15T09:13:42.932Z,10.67
2019-02-15T09:16:23.300Z,10.87
2019-02-15T09:19:03.352Z,10.43
2019-02-15T09:21:44.000Z,10.17
2019-02-15T09:24:23.513Z,11.67
2019-02-15T09:29:58.613Z,10.57
2019-02-15T09:32:38.964Z,11.40
2019-02-15T09:35:19.040Z,11.17
2019-02-15T09:37:59.205Z,10.97
2019-02-15T09:40:39.202Z,11.20
2019-02-15T09:43:19.217Z,11.33
2019-02-15T09:45:59.361Z,11.30
2019-02-15T09:48:39.432Z,10.97
2019-02-15T09:51:19.884Z,11.03
2019-02-15T09:53:59.818Z,12.00
2019-02-15T09:56:39.941Z,12.67
2019-02-15T09:59:20.136Z,10.90
2019-02-15T10:02:00.497Z,11.83
2019-02-15T10:04:41.051Z,11.23
2019-02-15T10:07:21.088Z,10.93
2019-02-15T10:10:01.111Z,10.80
2019-02-15T10:12:41.419Z,11.37
2019-02-15T10:15:21.565Z,10.47
2019-02-15T10:18:01.776Z,10.60
2019-02-15T10:20:41.856Z,11.50
2019-02-15T10:23:21.985Z,10.47
2019-02-15T10:26:02.301Z,10.63
2019-02-15T10:28:42.148Z,10.00
2019-02-15T10:31:22.212Z,10.43
2019-02-15T10:34:02.012Z,10.43
2019-02-15T10:36:42.355Z,10.80
2019-02-15T10:39:22.206Z,10.27
2019-02-15T10:42:02.410Z,10.87
2019-02-15T10:44:42.847Z,9.87
2019-02-15T10:47:24.988Z,9.90
2019-02-15T10:50:05.255Z,10.90
2019-02-15T10:52:45.492Z,11.33
2019-02-15T10:55:25.552Z,11.40
2019-02-15T10:58:05.889Z,10.67
2019-02-15T11:00:45.852Z,11.08
2019-02-15T11:03:13.448Z,11.20
2019-02-15T11:05:41.110Z,11.13
2019-02-15T11:08:08.883Z,11.88
2019-02-15T11:10:36.493Z,11.97
2019-02-15T11:13:04.136Z,11.50
2019-02-15T11:15:31.761Z,11.43
2019-02-15T11:18:01.740Z,12.33
2019-02-15T11:20:29.304Z,12.33
2019-02-15T11:22:56.903Z,12.93
2019-02-15T11:25:24.504Z,12.58
2019-02-15T11:27:52.134Z,13.08
2019-02-15T11:30:19.714Z,12.58
2019-02-15T11:32:47.330Z,12.40
2019-02-15T11:35:14.957Z,12.45
2019-02-15T11:38:02.343Z,13.15
2019-02-15T11:40:41.952Z,11.93
2019-02-15T11:43:22.065Z,13.48
2019-02-15T11:46:02.157Z,13.05
2019-02-15T11:48:42.285Z,13.72
2019-02-15T11:51:22.424Z,13.72
2019-02-15T11:54:02.464Z,13.28
2019-02-15T11:56:42.454Z,13.25
2019-02-15T11:59:22.509Z,14.03
2019-02-15T12:02:06.259Z,14.03
2019-02-15T12:04:44.987Z,14.70
2019-02-15T12:07:24.951Z,14.75
2019-02-15T12:10:05.064Z,14.53
2019-02-15T12:12:45.427Z,14.07
2019-02-15T12:15:25.325Z,14.63
2019-02-15T12:21:18.446Z,15.15
2019-02-15T12:23:58.573Z,12.95
2019-02-15T12:26:38.790Z,14.00
2019-02-15T12:29:18.773Z,12.95
2019-02-15T12:31:58.821Z,15.13
2019-02-15T12:34:39.013Z,14.98
2019-02-15T12:37:19.317Z,12.78
2019-02-15T12:40:00.408Z,13.32
2019-02-15T12:42:40.775Z,12.85
2019-02-15T12:45:08.930Z,12.63
2019-02-15T12:47:49.049Z,12.93
2019-02-15T12:50:29.004Z,12.45
2019-02-15T12:53:09.329Z,12.37
2019-02-15T12:55:49.364Z,13.30
2019-02-15T12:58:29.722Z,12.43
2019-02-15T13:01:10.121Z,13.38
2019-02-15T13:03:50.676Z,16.15
2019-02-15T13:06:30.838Z,15.70
2019-02-15T13:09:10.842Z,15.28
2019-02-15T13:11:51.157Z,15.08
2019-02-15T13:14:31.352Z,15.63
2019-02-15T13:17:11.339Z,15.68
2019-02-15T13:19:51.515Z,14.53
2019-02-15T13:22:31.869Z,15.45
2019-02-15T13:25:11.885Z,14.25
2019-02-15T13:27:52.418Z,13.03
2019-02-15T13:30:32.152Z,14.63
2019-02-15T13:33:12.284Z,15.05
2019-02-15T13:35:52.413Z,14.47
2019-02-15T13:38:32.594Z,13.80
2019-02-15T13:41:12.382Z,14.38
2019-02-15T13:43:52.468Z,13.70
2019-02-15T13:46:20.267Z,14.38
2019-02-15T13:49:07.444Z,14.33
2019-02-15T13:51:54.375Z,13.10
2019-02-15T13:54:34.008Z,13.10
2019-02-15T14:00:26.627Z,13.43
2019-02-15T14:03:06.379Z,15.48
2019-02-15T14:05:46.501Z,15.10
2019-02-15T14:08:26.378Z,15.48
2019-02-15T14:11:06.625Z,18.55
2019-02-15T14:13:46.977Z,15.30
2019-02-15T14:16:27.845Z,15.30
2019-02-15T14:19:08.294Z,14.47
2019-02-15T14:21:48.383Z,12.63
2019-02-15T14:24:28.565Z,12.70
2019-02-15T14:27:09.021Z,14.65
2019-02-15T14:29:49.813Z,14.23
2019-02-15T14:32:30.565Z,14.70
2019-02-15T14:35:10.497Z,13.98
2019-02-15T14:37:38.309Z,14.35
2019-02-15T14:40:25.292Z,14.40
2019-02-15T14:43:12.405Z,14.95
2019-02-15T14:45:40.113Z,13.50
2019-02-15T14:48:09.355Z,14.87
2019-02-15T14:50:56.368Z,14.18
2019-02-15T14:53:43.701Z,14.40
2019-02-15T14:56:24.179Z,15.18
2019-02-15T14:59:04.380Z,14.00
2019-02-15T15:01:44.497Z,14.98
2019-02-15T15:04:24.670Z,15.30
2019-02-15T15:07:04.824Z,15.43
2019-02-15T15:09:44.977Z,14.95
2019-02-15T15:12:25.153Z,14.98
2019-02-15T15:15:05.369Z,15.43
2019-02-15T15:17:45.837Z,15.38
2019-02-15T15:20:25.369Z,15.60
2019-02-15T15:23:06.689Z,15.68
2019-02-15T15:25:46.927Z,15.60
2019-02-15T15:28:27.083Z,15.03
2019-02-15T15:31:07.185Z,16.23
2019-02-15T15:33:47.241Z,16.05
2019-02-15T15:36:27.290Z,16.10
2019-02-15T15:39:07.400Z,17.73
2019-02-15T15:41:47.909Z,17.12
2019-02-15T15:44:27.869Z,16.27
2019-02-15T15:47:08.181Z,16.02
2019-02-15T15:49:48.132Z,16.35
2019-02-15T15:52:27.857Z,17.75
2019-02-15T15:55:08.249Z,17.30
2019-02-15T15:57:48.200Z,17.12
2019-02-15T16:00:28.430Z,17.33
2019-02-15T16:03:08.713Z,16.07
2019-02-15T16:05:48.665Z,16.47
2019-02-15T16:08:28.728Z,16.03
2019-02-15T16:11:08.729Z,15.80
2019-02-15T16:13:48.873Z,16.97
2019-02-15T16:16:29.088Z,17.23
2019-02-15T16:18:57.098Z,16.67
2019-02-15T16:21:44.554Z,17.67
2019-02-15T16:24:24.465Z,17.03
2019-02-15T16:27:04.650Z,18.43
2019-02-15T16:29:45.968Z,18.57
2019-02-15T16:32:25.656Z,18.73
2019-02-15T16:35:05.716Z,19.83
2019-02-15T16:37:45.945Z,20.27
2019-02-15T16:40:26.048Z,20.87
2019-02-15T16:43:06.263Z,22.77
2019-02-15T16:45:46.327Z,20.60
2019-02-15T16:48:26.392Z,20.80
2019-02-15T16:51:06.649Z,22.83
2019-02-15T16:53:46.661Z,28.10
2019-02-15T16:56:27.808Z,23.00
2019-02-15T16:59:08.304Z,23.00
2019-02-15T17:01:48.754Z,20.73
2019-02-15T17:04:28.493Z,19.73
2019-02-15T17:07:08.589Z,16.90
2019-02-15T17:09:48.724Z,18.10
2019-02-15T17:12:28.873Z,17.37
2019-02-15T17:15:09.160Z,19.53
2019-02-15T17:17:49.155Z,18.47
2019-02-15T17:20:29.408Z,18.33
2019-02-15T17:23:09.994Z,22.73
2019-02-15T17:25:49.839Z,23.63
2019-02-15T17:28:29.989Z,27.20
2019-02-15T17:31:10.455Z,56.30
2019-02-15T17:33:50.550Z,63.13
2019-02-15T17:36:30.764Z,34.00
2019-02-15T17:39:11.068Z,26.00
2019-02-15T17:41:51.097Z,24.27
2019-02-15T17:44:31.478Z,14.23
2019-02-15T17:47:12.450Z,12.53
2019-02-15T17:49:52.628Z,11.10
2019-02-15T17:52:32.897Z,9.77
2019-02-15T17:55:12.906Z,9.57
2019-02-15T17:57:53.109Z,11.43
2019-02-15T18:00:33.484Z,8.90
2019-02-15T18:03:13.584Z,12.17
2019-02-15T18:05:53.765Z,9.80
2019-02-15T18:08:33.914Z,13.03
2019-02-15T18:11:14.039Z,9.90
2019-02-15T18:13:54.090Z,13.37
2019-02-15T18:16:34.233Z,11.87
2019-02-15T18:19:14.868Z,12.43
2019-02-15T18:21:54.644Z,10.90
2019-02-15T18:24:34.985Z,9.30
2019-02-15T18:27:15.131Z,12.70
2019-02-15T18:29:55.265Z,12.80
2019-02-15T18:32:35.178Z,11.07
2019-02-15T18:35:15.442Z,9.13
2019-02-15T18:37:55.226Z,13.70
2019-02-15T18:40:35.488Z,9.90
2019-02-15T18:43:15.665Z,13.93
2019-02-15T18:45:55.914Z,9.07
2019-02-15T18:48:35.913Z,12.43
2019-02-15T18:51:15.772Z,11.00
2019-02-15T18:53:55.877Z,10.13
2019-02-15T18:56:35.912Z,12.90
2019-02-15T18:59:15.766Z,13.13
2019-02-15T19:01:55.889Z,10.10
2019-02-15T19:04:35.918Z,12.10
2019-02-15T19:07:16.114Z,9.03
2019-02-15T19:09:43.745Z,9.53
2019-02-15T19:12:30.749Z,11.47
2019-02-15T19:15:10.664Z,13.87
2019-02-15T19:17:50.801Z,13.17
2019-02-15T19:20:31.084Z,15.37
2019-02-15T19:23:11.216Z,11.73
2019-02-15T19:25:51.309Z,9.43
2019-02-15T19:28:31.434Z,11.97
2019-02-15T19:31:11.777Z,10.43
2019-02-15T19:33:52.004Z,10.37
2019-02-15T19:36:33.317Z,7.00
2019-02-15T19:39:13.324Z,10.20
2019-02-15T19:41:53.425Z,7.77
2019-02-15T19:44:33.441Z,10.50
2019-02-15T19:47:13.108Z,8.10
2019-02-15T19:49:53.309Z,11.03
2019-02-15T19:52:33.330Z,7.13
2019-02-15T19:55:13.367Z,9.23
2019-02-15T19:57:53.511Z,8.97
2019-02-15T20:00:21.479Z,9.63
2019-02-15T20:02:49.043Z,7.43
2019-02-15T20:05:19.156Z,11.53
2019-02-15T20:07:46.764Z,9.77
2019-02-15T20:10:16.111Z,10.27
2019-02-15T20:12:43.736Z,8.50
2019-02-15T20:15:11.902Z,8.30
2019-02-15T20:17:39.550Z,8.27
2019-02-15T20:20:09.046Z,8.93
2019-02-15T20:22:36.623Z,9.03
2019-02-15T20:25:04.453Z,8.37
2019-02-15T20:27:32.096Z,8.90
2019-02-15T20:29:59.680Z,11.37
2019-02-15T20:32:27.284Z,12.37
2019-02-15T20:34:54.932Z,11.87
2019-02-15T20:37:22.532Z,11.00
2019-02-15T20:39:50.116Z,10.90
2019-02-15T20:42:17.763Z,11.23
2019-02-15T20:44:45.352Z,11.00
2019-02-15T20:47:12.970Z,11.77
2019-02-15T20:49:40.751Z,9.77
2019-02-15T20:52:08.355Z,10.53
2019-02-15T20:54:36.022Z,13.57
2019-02-15T20:57:03.605Z,10.50
2019-02-15T20:59:31.180Z,10.70
2019-02-15T21:01:58.800Z,9.87
2019-02-15T21:04:26.389Z,10.30
2019-02-15T21:06:54.017Z,9.40
2019-02-15T21:09:21.604Z,9.83
2019-02-15T21:11:49.212Z,11.67
2019-02-15T21:14:16.864Z,10.23
2019-02-15T21:16:44.536Z,10.23
2019-02-15T21:19:12.206Z,11.47
2019-02-15T21:21:39.871Z,11.13
2019-02-15T21:24:07.444Z,9.30
2019-02-15T21:26:35.048Z,9.13
2019-02-15T21:29:02.647Z,9.77
2019-02-15T21:31:30.268Z,10.03
2019-02-15T21:33:57.824Z,9.67
2019-02-15T21:36:25.396Z,11.07
2019-02-15T21:38:53.020Z,12.97
2019-02-15T21:41:20.642Z,11.57
2019-02-15T21:43:48.225Z,9.97
2019-02-15T21:46:15.799Z,8.67
2019-02-15T21:48:43.460Z,8.33
2019-02-15T21:51:11.163Z,8.73
2019-02-15T21:53:38.792Z,8.23
2019-02-15T21:56:06.384Z,7.83
2019-02-15T21:58:34.538Z,8.07
2019-02-15T22:01:02.444Z,8.13
2019-02-15T22:03:30.021Z,12.50
2019-02-15T22:05:57.632Z,8.77
2019-02-15T22:08:25.290Z,10.00
2019-02-15T22:10:53.037Z,9.87
2019-02-15T22:13:20.666Z,13.17
2019-02-15T22:15:48.236Z,9.23
2019-02-15T22:18:15.836Z,7.77
2019-02-15T22:20:43.478Z,9.23
2019-02-15T22:23:11.256Z,9.33
2019-02-15T22:25:38.815Z,9.17
2019-02-15T22:28:34.797Z,9.90
2019-02-15T22:31:21.824Z,11.37
2019-02-15T22:34:01.872Z,12.07
2019-02-15T22:36:42.263Z,10.03
2019-02-15T22:39:22.250Z,12.17
2019-02-15T22:42:02.673Z,10.77
2019-02-15T22:44:42.856Z,10.53
2019-02-15T22:47:22.884Z,9.33
2019-02-15T22:50:03.032Z,10.87
2019-02-15T22:52:43.448Z,8.67
2019-02-15T22:55:23.404Z,9.33
2019-02-15T22:58:04.669Z,9.97
2019-02-15T23:03:40.082Z,8.70
2019-02-15T23:06:20.128Z,9.60
2019-02-15T23:08:59.989Z,8.97
2019-02-15T23:11:40.173Z,8.87
2019-02-15T23:14:20.546Z,9.63
2019-02-15T23:17:00.533Z,7.80
2019-02-15T23:19:40.661Z,9.40
2019-02-15T23:22:20.801Z,9.80
2019-02-15T23:25:01.127Z,6.97
2019-02-15T23:27:41.393Z,9.30
2019-02-15T23:30:21.518Z,10.73
2019-02-15T23:33:01.438Z,8.00
2019-02-15T23:35:41.692Z,10.80
2019-02-15T23:38:21.448Z,11.27
2019-02-15T23:41:01.637Z,10.37
2019-02-15T23:43:41.845Z,7.77
2019-02-15T23:46:21.909Z,12.60
2019-02-15T23:49:01.957Z,9.87
2019-02-15T23:51:42.323Z,10.53
2019-02-15T23:54:22.523Z,10.57
2019-02-15T23:57:02.550Z,9.13
2019-02-15T23:59:42.668Z,8.87
